Time;durP1;ratioP1;P1;durP2;ratioP2;P2;SDS_P1;SDS_P2;PMS_P1;PMS_P2;Temp;Humidity;BMP_temperature;BMP_pressure;BME280_temperature;BME280_humidity;BME280_pressure;Samples;Min_cycle;Max_cycle;Signal;HPM_P1;HPM_P2
2024/03/10 00:00:17;;;;;;;11.88;9.15;;;;;;;9.31;56.30;98280.53;2494243;29;20047;-76
2024/03/10 00:01:30;;;;;;;10.70;9.25;;;;;;;9.30;56.34;98273.63;2493685;28;20051;-77
2024/03/10 00:02:45;;;;;;;11.13;9.50;;;;;;;9.29;55.90;98271.09;2494367;29;20172;-76
2024/03/10 00:03:58;;;;;;;12.45;10.43;;;;;;;9.30;56.38;98272.78;2495073;28;20056;-75
2024/03/10 00:05:13;;;;;;;10.98;9.77;;;;;;;9.29;56.42;98269.34;2494242;28;20142;-76
2024/03/10 00:06:28;;;;;;;11.52;9.00;;;;;;;9.29;56.29;98263.28;2503328;28;20047;-77
2024/03/10 00:07:43;;;;;;;15.00;9.45;;;;;;;9.29;56.35;98268.47;2503547;28;20473;-77
2024/03/10 00:08:56;;;;;;;13.85;10.98;;;;;;;9.28;56.39;98265.03;2503379;28;20128;-77
2024/03/10 00:10:12;;;;;;;11.20;9.68;;;;;;;9.28;56.30;98269.41;2503863;28;20493;-77
2024/03/10 00:11:26;;;;;;;14.88;9.63;;;;;;;9.28;56.36;98269.41;2504127;28;20051;-77
2024/03/10 00:12:40;;;;;;;10.32;8.27;;;;;;;9.28;56.26;98269.41;2504006;28;20130;-77
2024/03/10 00:13:55;;;;;;;10.90;9.20;;;;;;;9.26;56.21;98276.41;2503141;28;20043;-76
2024/03/10 00:15:10;;;;;;;15.07;9.57;;;;;;;9.26;56.42;98276.41;2504428;28;20082;-78
2024/03/10 00:16:24;;;;;;;13.57;10.05;;;;;;;9.25;56.48;98272.13;2503908;28;20047;-75
2024/03/10 00:17:38;;;;;;;13.35;10.00;;;;;;;9.25;56.39;98274.75;2502583;28;20061;-77
2024/03/10 00:18:52;;;;;;;11.75;10.30;;;;;;;9.23;56.48;98271.34;2503329;28;20058;-75
2024/03/10 00:20:08;;;;;;;9.32;7.85;;;;;;;9.23;56.42;98277.38;2503486;28;20051;-77
2024/03/10 00:21:22;;;;;;;11.52;8.75;;;;;;;9.24;56.41;98266.09;2502434;28;20051;-77
2024/03/10 00:22:38;;;;;;;11.75;9.68;;;;;;;9.23;56.47;98272.19;2502424;28;20532;-77
2024/03/10 00:23:52;;;;;;;10.52;8.77;;;;;;;9.24;56.51;98280.84;2503422;28;20118;-76
2024/03/10 00:25:08;;;;;;;9.82;8.77;;;;;;;9.22;56.56;98282.69;2503975;28;20665;-78
2024/03/10 00:26:21;;;;;;;10.73;9.38;;;;;;;9.22;56.37;98277.47;2503226;28;20397;-78
2024/03/10 00:27:36;;;;;;;10.02;8.80;;;;;;;9.21;56.43;98283.56;2503184;28;20089;-77
2024/03/10 00:28:49;;;;;;;9.60;8.10;;;;;;;9.21;56.55;98280.97;2504216;28;20526;-77
2024/03/10 00:30:05;;;;;;;8.90;7.43;;;;;;;9.21;56.35;98284.41;2503665;28;20086;-78
2024/03/10 00:31:19;;;;;;;10.90;8.10;;;;;;;9.20;56.65;98280.13;2504329;28;20047;-78
2024/03/10 00:32:33;;;;;;;12.70;8.73;;;;;;;9.21;56.53;98278.38;2504464;28;20094;-77
2024/03/10 00:33:47;;;;;;;11.05;8.85;;;;;;;9.22;56.35;98285.28;2503720;28;20449;-77
2024/03/10 00:35:02;;;;;;;10.70;9.13;;;;;;;9.22;56.32;98280.91;2503643;28;20137;-76
2024/03/10 00:36:18;;;;;;;11.93;9.75;;;;;;;9.23;56.21;98284.34;2504178;28;20043;-77
2024/03/10 00:37:33;;;;;;;9.32;8.32;;;;;;;9.23;56.43;98277.38;2504213;28;20078;-77
2024/03/10 00:38:48;;;;;;;9.40;8.32;;;;;;;9.21;56.26;98274.00;2504371;28;20058;-77
2024/03/10 00:40:05;;;;;;;10.55;9.45;;;;;;;9.23;56.36;98276.56;2504630;28;20050;-77
2024/03/10 00:41:19;;;;;;;11.60;8.75;;;;;;;9.23;56.49;98273.94;2504023;28;20134;-77
2024/03/10 00:42:33;;;;;;;14.75;9.15;;;;;;;9.22;56.37;98280.06;2503847;28;20570;-77
2024/03/10 00:43:48;;;;;;;8.95;8.05;;;;;;;9.21;56.38;98275.75;2505172;28;20047;-76
2024/03/10 00:45:02;;;;;;;12.23;8.20;;;;;;;9.22;56.45;98282.69;2503954;28;20046;-77
2024/03/10 00:46:17;;;;;;;13.07;8.77;;;;;;;9.22;56.36;98283.53;2503144;28;20042;-77
2024/03/10 00:47:31;;;;;;;10.90;8.15;;;;;;;9.23;56.14;98282.59;2504222;28;20050;-76
2024/03/10 00:48:46;;;;;;;10.85;8.98;;;;;;;9.24;56.15;98279.09;2504051;28;20090;-77
2024/03/10 00:49:59;;;;;;;8.88;7.97;;;;;;;9.25;56.17;98280.78;2504020;28;20047;-77
2024/03/10 00:51:13;;;;;;;13.98;9.63;;;;;;;9.25;56.14;98279.94;2503839;28;20507;-77
2024/03/10 00:52:27;;;;;;;11.68;9.50;;;;;;;9.25;56.16;98277.34;2504640;28;20051;-77
2024/03/10 00:53:41;;;;;;;12.20;9.65;;;;;;;9.25;55.78;98274.75;2503444;28;20050;-78
2024/03/10 00:54:56;;;;;;;11.98;9.52;;;;;;;9.24;55.92;98278.22;2504709;28;20050;-75
2024/03/10 00:56:11;;;;;;;11.07;9.48;;;;;;;9.23;56.09;98273.94;2504567;28;20054;-77
2024/03/10 00:57:25;;;;;;;11.43;8.95;;;;;;;9.22;56.27;98267.06;2504144;28;20050;-78
2024/03/10 00:58:39;;;;;;;9.93;8.45;;;;;;;9.21;56.33;98273.16;2504554;28;20057;-77
2024/03/10 00:59:53;;;;;;;11.63;9.38;;;;;;;9.21;56.37;98273.16;2504511;28;20298;-76
2024/03/10 01:01:07;;;;;;;9.80;7.85;;;;;;;9.20;56.30;98268.88;2497169;28;20051;-78
2024/03/10 01:02:21;;;;;;;10.55;8.73;;;;;;;9.19;56.28;98278.44;2503934;28;20047;-78
2024/03/10 01:03:35;;;;;;;9.15;8.13;;;;;;;9.20;56.25;98274.06;2504547;28;20054;-76
2024/03/10 01:04:49;;;;;;;9.07;8.07;;;;;;;9.21;55.98;98273.16;2504699;28;20050;-77
2024/03/10 01:06:04;;;;;;;15.05;9.75;;;;;;;9.21;55.98;98278.38;2504164;28;20141;-77
2024/03/10 01:07:18;;;;;;;8.80;7.88;;;;;;;9.20;55.96;98277.53;2513717;28;20047;-75
2024/03/10 01:08:32;;;;;;;9.82;7.97;;;;;;;9.21;55.78;98273.16;2511631;28;20074;-77
2024/03/10 01:09:46;;;;;;;11.52;8.38;;;;;;;9.21;56.08;98273.16;2502599;28;20065;-77
2024/03/10 01:11:01;;;;;;;12.52;8.10;;;;;;;9.20;55.81;98271.47;2503234;28;20059;-77
2024/03/10 01:12:16;;;;;;;10.15;9.10;;;;;;;9.18;55.84;98266.31;2503642;28;20480;-76
2024/03/10 01:13:31;;;;;;;9.38;8.15;;;;;;;9.18;55.99;98261.97;2503025;28;20423;-77
2024/03/10 01:14:44;;;;;;;10.45;8.95;;;;;;;9.18;55.96;98264.56;2503962;28;20163;-77
2024/03/10 01:15:58;;;;;;;9.75;8.05;;;;;;;9.18;55.92;98258.50;2503558;28;20078;-77
2024/03/10 01:17:13;;;;;;;8.35;7.28;;;;;;;9.16;55.77;98256.00;2502847;28;20042;-77
2024/03/10 01:18:28;;;;;;;11.30;7.53;;;;;;;9.17;55.77;98254.22;2502682;28;20047;-77
2024/03/10 01:19:44;;;;;;;9.88;8.30;;;;;;;9.14;55.96;98257.81;2502550;28;20428;-76
2024/03/10 01:20:58;;;;;;;8.52;7.63;;;;;;;9.13;55.96;98256.09;2503159;28;20082;-77
2024/03/10 01:22:16;;;;;;;8.57;7.68;;;;;;;9.10;56.10;98251.03;2502551;28;20432;-77
2024/03/10 01:23:32;;;;;;;8.13;7.28;;;;;;;9.08;56.07;98252.84;2503518;28;20138;-76
2024/03/10 01:24:46;;;;;;;11.25;8.77;;;;;;;9.08;56.27;98257.19;2503541;28;20055;-76
2024/03/10 01:26:01;;;;;;;10.27;8.05;;;;;;;9.06;56.15;98252.06;2502314;28;20486;-78
2024/03/10 01:27:15;;;;;;;10.40;8.32;;;;;;;9.07;56.22;98255.53;2504070;28;20050;-78
2024/03/10 01:28:29;;;;;;;13.88;8.90;;;;;;;9.05;56.26;98255.56;2503446;28;20053;-77
2024/03/10 01:29:44;;;;;;;10.70;8.38;;;;;;;9.05;56.13;98252.97;2502986;28;20097;-77
2024/03/10 01:30:58;;;;;;;8.93;7.53;;;;;;;9.03;56.09;98246.13;2503514;28;20047;-77
2024/03/10 01:32:12;;;;;;;10.73;8.55;;;;;;;9.04;56.38;98250.44;2503583;28;20050;-76
2024/03/10 01:33:26;;;;;;;9.32;7.88;;;;;;;9.02;56.28;98250.50;2502957;28;20508;-78
2024/03/10 01:34:40;;;;;;;10.30;8.25;;;;;;;9.02;56.21;98242.69;2503570;28;20051;-75
2024/03/10 01:35:55;;;;;;;9.90;8.27;;;;;;;9.01;56.31;98235.81;2503282;28;20051;-76
2024/03/10 01:37:08;;;;;;;10.13;7.50;;;;;;;9.01;56.25;98230.59;2503557;28;20051;-76
2024/03/10 01:38:23;;;;;;;11.20;8.73;;;;;;;9.01;56.16;98230.59;2503068;28;20419;-76
2024/03/10 01:39:36;;;;;;;10.38;9.25;;;;;;;9.01;56.39;98224.53;2503376;28;20449;-77
2024/03/10 01:40:50;;;;;;;11.13;8.23;;;;;;;9.02;56.23;98232.28;2503794;28;20063;-77
2024/03/10 01:42:05;;;;;;;8.50;7.45;;;;;;;9.02;56.25;98239.25;2502827;28;20047;-76
2024/03/10 01:43:20;;;;;;;9.15;8.20;;;;;;;9.01;56.08;98230.59;2503307;28;20053;-77
2024/03/10 01:44:33;;;;;;;9.48;8.48;;;;;;;9.00;56.26;98223.69;2503620;28;20057;-77
2024/03/10 01:45:50;;;;;;;9.75;8.25;;;;;;;9.00;56.28;98221.09;2502708;28;20423;-77
2024/03/10 01:47:03;;;;;;;8.30;7.15;;;;;;;9.00;56.35;98215.03;2502649;28;20050;-77
2024/03/10 01:48:18;;;;;;;8.60;7.40;;;;;;;9.01;56.13;98215.00;2503255;28;20564;-77
2024/03/10 01:49:33;;;;;;;11.57;8.10;;;;;;;9.00;56.17;98213.28;2502595;28;20158;-76
2024/03/10 01:50:48;;;;;;;11.18;8.95;;;;;;;8.99;56.22;98210.75;2503279;28;20051;-77
2024/03/10 01:52:01;;;;;;;10.93;7.55;;;;;;;8.99;56.38;98209.00;2502946;28;20051;-77
2024/03/10 01:53:16;;;;;;;9.05;7.38;;;;;;;8.98;56.23;98209.91;2502711;28;20054;-76
2024/03/10 01:54:33;;;;;;;10.43;6.40;;;;;;;8.97;56.26;98213.41;2503446;28;20061;-77
2024/03/10 01:55:48;;;;;;;8.70;7.07;;;;;;;8.97;56.43;98203.00;2503642;28;20061;-76
2024/03/10 01:57:03;;;;;;;9.85;7.25;;;;;;;8.97;56.11;98204.78;2503401;28;20122;-77
2024/03/10 01:58:19;;;;;;;9.43;7.80;;;;;;;8.95;56.33;98200.47;2503235;28;20050;-76
2024/03/10 01:59:33;;;;;;;8.88;7.90;;;;;;;8.95;56.26;98197.03;2503568;28;20066;-76
2024/03/10 02:00:50;;;;;;;7.93;7.13;;;;;;;8.94;56.17;98208.34;2503963;28;20055;-76
2024/03/10 02:02:05;;;;;;;10.13;7.88;;;;;;;8.94;56.12;98195.34;2502944;28;20054;-77
2024/03/10 02:03:19;;;;;;;8.40;7.28;;;;;;;8.93;56.16;98197.09;2503546;28;20370;-77
2024/03/10 02:04:33;;;;;;;8.25;7.45;;;;;;;8.93;56.17;98198.81;2503318;28;20047;-75
2024/03/10 02:05:47;;;;;;;8.20;7.40;;;;;;;8.92;56.44;98194.53;2502213;28;20126;-76
2024/03/10 02:07:01;;;;;;;8.18;6.82;;;;;;;8.91;56.50;98198.91;2502986;28;20055;-77
2024/03/10 02:08:16;;;;;;;9.15;7.15;;;;;;;8.91;56.41;98200.66;2503564;28;20050;-75
2024/03/10 02:09:30;;;;;;;12.10;7.88;;;;;;;8.89;56.43;98189.47;2503194;28;20567;-77
2024/03/10 02:10:48;;;;;;;10.75;7.68;;;;;;;8.89;56.31;98185.13;2503665;28;20046;-77
2024/03/10 02:12:01;;;;;;;10.60;6.72;;;;;;;8.90;56.13;98178.16;2503594;28;20058;-77
2024/03/10 02:13:16;;;;;;;10.95;7.90;;;;;;;8.90;55.97;98181.59;2503188;28;20051;-75
2024/03/10 02:14:31;;;;;;;8.95;7.22;;;;;;;8.91;56.02;98174.66;2504013;28;20129;-76
2024/03/10 02:15:59;;;;;;;8.52;7.53;;;;;;;8.91;55.96;98178.09;2506014;28;20062;-76
2024/03/10 02:17:14;;;;;;;8.38;7.55;;;;;;;8.90;55.95;98181.59;2498618;28;20144;-76
2024/03/10 02:18:28;;;;;;;9.13;7.40;;;;;;;8.90;56.05;98175.56;2505863;28;20046;-75
2024/03/10 02:19:42;;;;;;;9.93;7.50;;;;;;;8.89;56.10;98176.47;2505911;28;20078;-75
2024/03/10 02:20:56;;;;;;;7.15;6.45;;;;;;;8.90;55.97;98172.94;2505093;28;20047;-76
2024/03/10 02:22:10;;;;;;;8.05;6.22;;;;;;;8.89;56.14;98172.13;2505270;28;20047;-75
2024/03/10 02:23:28;;;;;;;9.27;7.55;;;;;;;8.91;56.03;98178.09;2505917;28;20051;-76
2024/03/10 02:24:45;;;;;;;8.00;6.68;;;;;;;8.91;55.91;98178.09;2505976;28;20111;-74
2024/03/10 02:26:00;;;;;;;8.00;7.18;;;;;;;8.92;55.78;98169.38;2505351;28;20103;-76
2024/03/10 02:27:16;;;;;;;9.38;7.65;;;;;;;8.92;55.94;98171.97;2505990;28;20066;-77
2024/03/10 02:28:35;;;;;;;8.63;7.72;;;;;;;8.92;56.01;98163.34;2505596;28;20046;-76
2024/03/10 02:30:18;;;;;;;6.93;6.22;;;;;;;8.93;55.88;98162.41;2505005;28;20053;-77
2024/03/10 02:47:13;;;;;;;10.95;7.00;;;;;;;9.08;55.27;98127.94;2471908;29;20059;-77
2024/03/10 02:48:26;;;;;;;7.18;6.07;;;;;;;9.10;55.32;98120.94;2487291;29;20044;-77
2024/03/10 02:49:41;;;;;;;7.47;6.20;;;;;;;9.11;55.32;98122.63;2492508;28;20043;-76
2024/03/10 02:50:54;;;;;;;8.43;6.53;;;;;;;9.10;55.45;98123.53;2492999;29;20043;-77
2024/03/10 02:52:09;;;;;;;8.43;7.13;;;;;;;9.08;55.70;98112.34;2492856;29;20124;-77
2024/03/10 02:53:23;;;;;;;8.95;6.93;;;;;;;9.05;55.69;98112.47;2492563;28;20465;-77
2024/03/10 02:54:38;;;;;;;7.05;5.15;;;;;;;9.04;55.82;98110.78;2487922;28;20127;-76
2024/03/10 02:55:53;;;;;;;11.75;7.25;;;;;;;9.03;55.86;98106.47;2489916;29;20084;-77
2024/03/10 02:57:08;;;;;;;9.80;7.13;;;;;;;9.02;55.86;98107.41;2484710;29;20069;-77
2024/03/10 02:58:23;;;;;;;8.43;6.28;;;;;;;9.02;55.93;98106.56;2492429;28;20043;-77
2024/03/10 02:59:37;;;;;;;8.05;7.25;;;;;;;9.03;55.69;98092.63;2487828;29;20469;-77
2024/03/10 03:00:50;;;;;;;10.52;7.63;;;;;;;9.05;55.77;98089.06;2489856;29;20063;-77
2024/03/10 03:02:06;;;;;;;9.70;7.25;;;;;;;9.04;55.78;98083.94;2492317;28;20047;-76
2024/03/10 03:03:19;;;;;;;11.07;7.60;;;;;;;9.03;55.92;98077.88;2492875;28;20055;-77
2024/03/10 03:04:34;;;;;;;9.30;8.30;;;;;;;9.02;55.91;98080.56;2493003;29;20543;-77
2024/03/10 03:05:48;;;;;;;9.48;7.43;;;;;;;9.02;55.91;98076.19;2492495;28;20067;-77
2024/03/10 03:07:02;;;;;;;8.27;6.18;;;;;;;9.02;55.83;98070.16;2492436;28;20059;-77
2024/03/10 03:08:15;;;;;;;7.13;5.65;;;;;;;9.03;55.81;98070.06;2492946;28;20547;-77
2024/03/10 03:09:30;;;;;;;8.00;6.13;;;;;;;9.05;55.89;98057.00;2488600;28;20083;-77
2024/03/10 03:10:43;;;;;;;7.75;6.47;;;;;;;9.06;55.59;98058.69;2489067;29;20051;-77
2024/03/10 03:11:58;;;;;;;7.47;6.78;;;;;;;9.08;55.65;98057.69;2493219;28;20098;-77
2024/03/10 03:13:11;;;;;;;8.07;5.90;;;;;;;9.10;55.66;98049.84;2484685;29;20059;-77
2024/03/10 03:14:27;;;;;;;7.03;6.18;;;;;;;9.11;55.60;98039.38;2492370;28;20045;-77
2024/03/10 03:15:41;;;;;;;8.88;5.85;;;;;;;9.11;55.61;98021.16;2493072;28;20051;-77
2024/03/10 03:16:55;;;;;;;8.40;6.63;;;;;;;9.12;55.61;98025.44;2493256;28;20129;-76
2024/03/10 03:18:09;;;;;;;10.57;6.10;;;;;;;9.12;55.41;98011.59;2493675;28;20520;-77
2024/03/10 03:19:23;;;;;;;7.18;5.63;;;;;;;9.12;55.56;98011.59;2492992;28;20059;-76
2024/03/10 03:20:37;;;;;;;8.30;6.28;;;;;;;9.10;55.60;98016.84;2489780;28;20051;-77
2024/03/10 03:21:51;;;;;;;8.15;7.13;;;;;;;9.10;55.46;98016.84;2492967;28;20051;-77
2024/03/10 03:23:04;;;;;;;7.22;6.10;;;;;;;9.11;55.41;98028.09;2492969;28;20067;-77
2024/03/10 03:24:19;;;;;;;8.65;6.68;;;;;;;9.10;55.35;98035.06;2492188;29;20062;-77
2024/03/10 03:25:33;;;;;;;8.25;6.70;;;;;;;9.10;55.71;98048.06;2488551;28;20055;-75
2024/03/10 03:26:47;;;;;;;7.55;6.85;;;;;;;9.10;55.54;98060.25;2494293;28;20130;-77
2024/03/10 03:28:01;;;;;;;8.02;7.03;;;;;;;9.10;55.46;98078.47;2494326;29;20057;-77
2024/03/10 03:29:15;;;;;;;7.82;6.28;;;;;;;9.10;55.51;98089.69;2493709;28;20533;-77
2024/03/10 03:30:31;;;;;;;7.07;6.38;;;;;;;9.11;55.43;98085.34;2494284;29;20051;-77
2024/03/10 03:31:46;;;;;;;7.88;6.57;;;;;;;9.11;55.35;98080.13;2494166;28;20063;-77
2024/03/10 03:32:59;;;;;;;6.90;6.13;;;;;;;9.10;55.62;98070.66;2494279;28;20077;-77
2024/03/10 03:34:14;;;;;;;7.57;6.55;;;;;;;9.10;55.46;98063.69;2493808;28;20057;-76
2024/03/10 03:35:27;;;;;;;7.10;5.88;;;;;;;9.11;55.44;98044.56;2494440;29;20051;-77
2024/03/10 03:36:42;;;;;;;7.60;5.43;;;;;;;9.13;55.15;98034.09;2494579;28;20054;-76
2024/03/10 03:37:56;;;;;;;5.75;5.13;;;;;;;9.14;55.02;98027.97;2493557;28;20137;-77
2024/03/10 03:39:11;;;;;;;7.60;5.93;;;;;;;9.14;55.24;98036.63;2493622;28;20051;-76
2024/03/10 03:40:25;;;;;;;6.90;6.20;;;;;;;9.14;55.07;98034.03;2491642;29;20051;-78
2024/03/10 03:41:40;;;;;;;6.47;4.93;;;;;;;9.14;55.10;98031.44;2489744;28;20047;-78
2024/03/10 03:42:53;;;;;;;8.52;7.15;;;;;;;9.15;55.19;98040.06;2496069;28;20055;-76
2024/03/10 03:44:08;;;;;;;7.75;5.70;;;;;;;9.14;54.97;98038.41;2495345;29;20138;-78
2024/03/10 03:45:22;;;;;;;9.73;6.78;;;;;;;9.12;55.05;98056.66;2494354;28;20125;-77
2024/03/10 03:46:38;;;;;;;9.13;8.05;;;;;;;9.10;55.26;98042.88;2494349;29;20057;-77
2024/03/10 03:47:51;;;;;;;8.07;6.13;;;;;;;9.08;55.29;98062.06;2494288;28;20556;-77
2024/03/10 03:49:06;;;;;;;7.22;6.40;;;;;;;9.05;55.50;98055.22;2494138;29;20066;-75
2024/03/10 03:50:20;;;;;;;7.65;6.65;;;;;;;9.03;55.55;98064.03;2493898;28;20055;-76
2024/03/10 03:51:35;;;;;;;9.25;6.82;;;;;;;9.00;55.90;98062.41;2494681;28;20047;-76
2024/03/10 03:52:49;;;;;;;8.45;7.45;;;;;;;8.98;55.85;98063.38;2494524;29;20138;-77
2024/03/10 03:54:05;;;;;;;10.30;7.25;;;;;;;8.95;56.00;98070.41;2494055;28;20505;-76
2024/03/10 03:55:19;;;;;;;8.00;7.13;;;;;;;8.94;55.83;98057.47;2494330;28;20051;-77
2024/03/10 03:56:33;;;;;;;7.65;6.43;;;;;;;8.91;56.03;98052.41;2494339;29;20700;-77
2024/03/10 03:57:47;;;;;;;8.48;6.53;;;;;;;8.89;56.15;98055.06;2493902;28;20501;-77
2024/03/10 03:59:03;;;;;;;7.78;6.07;;;;;;;8.87;56.19;98045.63;2494598;29;20061;-77
2024/03/10 04:00:17;;;;;;;8.35;6.72;;;;;;;8.85;56.55;98050.06;2494415;28;20489;-77
2024/03/10 04:01:31;;;;;;;10.82;6.85;;;;;;;8.82;56.33;98038.03;2494360;28;20082;-77
2024/03/10 04:02:46;;;;;;;6.68;5.65;;;;;;;8.81;56.40;98053.72;2488832;29;20535;-77
2024/03/10 04:04:01;;;;;;;8.40;7.03;;;;;;;8.80;56.40;98033.81;2492316;29;20047;-77
2024/03/10 04:05:15;;;;;;;6.65;5.78;;;;;;;8.80;56.28;98037.25;2493818;28;20406;-77
2024/03/10 04:06:29;;;;;;;5.78;5.13;;;;;;;8.80;56.41;98029.44;2494121;28;20074;-77
2024/03/10 04:07:43;;;;;;;7.32;5.82;;;;;;;8.79;56.45;98032.97;2494304;29;20051;-77
2024/03/10 04:08:57;;;;;;;9.05;6.65;;;;;;;8.79;56.43;98042.53;2493817;28;20047;-77
2024/03/10 04:10:11;;;;;;;13.68;7.13;;;;;;;8.77;56.67;98052.16;2493869;28;20058;-77
2024/03/10 04:11:26;;;;;;;7.70;6.00;;;;;;;8.75;56.56;98052.19;2494097;28;20053;-78
2024/03/10 04:12:40;;;;;;;9.43;7.40;;;;;;;8.72;56.69;98050.59;2493767;29;20485;-77
2024/03/10 04:13:55;;;;;;;9.55;7.07;;;;;;;8.71;56.68;98051.50;2493524;28;20051;-77
2024/03/10 04:15:09;;;;;;;8.50;7.32;;;;;;;8.72;56.86;98049.75;2494394;29;20066;-77
2024/03/10 04:16:23;;;;;;;7.03;6.13;;;;;;;8.70;56.71;98044.63;2494269;29;20424;-77
2024/03/10 04:17:37;;;;;;;7.78;6.63;;;;;;;8.69;56.81;98048.13;2493929;28;20050;-77
2024/03/10 04:18:52;;;;;;;8.73;6.65;;;;;;;8.67;57.03;98047.34;2488009;29;20500;-77
2024/03/10 04:20:12;;;;;;;9.45;7.22;;;;;;;8.67;57.13;98047.34;2492722;29;20051;-77
2024/03/10 04:21:27;;;;;;;9.00;6.13;;;;;;;8.66;57.10;98045.66;2494541;28;20043;-76
2024/03/10 04:22:41;;;;;;;11.30;6.50;;;;;;;8.65;57.09;98046.56;2495384;29;20054;-77
2024/03/10 04:23:55;;;;;;;13.00;6.68;;;;;;;8.64;57.13;98042.25;2494316;28;20150;-77
2024/03/10 04:25:09;;;;;;;6.65;5.70;;;;;;;8.64;57.24;98036.22;2494779;29;20051;-76
2024/03/10 04:26:24;;;;;;;7.78;6.25;;;;;;;8.63;57.32;98032.78;2493047;28;20489;-76
2024/03/10 04:27:37;;;;;;;8.65;7.75;;;;;;;8.62;57.26;98040.63;2493700;29;20047;-76
2024/03/10 04:28:52;;;;;;;8.98;7.18;;;;;;;8.60;57.20;98038.13;2493119;28;20519;-76
2024/03/10 04:30:07;;;;;;;8.35;6.35;;;;;;;8.60;57.37;98039.88;2493049;28;20067;-77
2024/03/10 04:31:23;;;;;;;7.68;6.43;;;;;;;8.59;57.47;98041.63;2494112;29;20092;-76
2024/03/10 04:32:37;;;;;;;6.40;5.68;;;;;;;8.58;57.42;98031.28;2494262;28;20150;-76
2024/03/10 04:33:53;;;;;;;7.25;5.30;;;;;;;8.58;57.28;98018.28;2493689;28;20476;-76
2024/03/10 04:35:07;;;;;;;7.38;6.65;;;;;;;8.57;57.22;98008.78;2494165;28;20436;-76
2024/03/10 04:36:21;;;;;;;10.90;6.15;;;;;;;8.57;57.23;98012.25;2494016;28;20501;-76
2024/03/10 04:37:35;;;;;;;7.38;5.80;;;;;;;8.57;57.19;98011.38;2493718;28;20047;-76
2024/03/10 04:38:49;;;;;;;8.23;6.47;;;;;;;8.56;57.17;98010.56;2494251;28;20047;-76
2024/03/10 04:40:06;;;;;;;7.00;5.93;;;;;;;8.55;57.07;98014.06;2493398;29;20058;-77
2024/03/10 04:41:20;;;;;;;7.97;7.07;;;;;;;8.55;57.08;98019.28;2493303;28;20074;-76
2024/03/10 04:42:34;;;;;;;7.03;6.32;;;;;;;8.56;57.16;98031.34;2493700;29;20062;-77
2024/03/10 04:43:48;;;;;;;8.68;7.57;;;;;;;8.56;57.10;98033.94;2493833;28;20159;-77
2024/03/10 04:45:02;;;;;;;8.35;6.53;;;;;;;8.56;57.22;98033.09;2486299;28;20422;-77
2024/03/10 04:46:17;;;;;;;8.02;6.43;;;;;;;8.56;57.41;98036.56;2492404;28;20046;-77
2024/03/10 04:47:31;;;;;;;6.95;6.22;;;;;;;8.55;57.24;98029.66;2494581;29;20047;-77
2024/03/10 04:48:46;;;;;;;8.52;6.82;;;;;;;8.56;57.11;98022.72;2493340;29;20054;-77
2024/03/10 04:50:01;;;;;;;6.80;6.15;;;;;;;8.55;57.34;98019.28;2493538;28;20051;-78
2024/03/10 04:51:16;;;;;;;7.18;5.80;;;;;;;8.55;57.34;98029.66;2493427;29;20084;-77
2024/03/10 04:52:30;;;;;;;8.02;7.07;;;;;;;8.55;57.27;98019.28;2493783;28;20051;-77
2024/03/10 04:53:45;;;;;;;17.70;7.05;;;;;;;8.55;57.27;98021.88;2492174;28;20122;-77
2024/03/10 04:54:58;;;;;;;9.50;5.57;;;;;;;8.55;57.34;98028.84;2493987;28;20504;-78
2024/03/10 04:56:13;;;;;;;7.07;6.38;;;;;;;8.54;57.58;98017.56;2493684;29;20067;-77
2024/03/10 04:57:26;;;;;;;9.27;5.75;;;;;;;8.53;57.63;98026.28;2493110;28;20147;-77
2024/03/10 04:58:41;;;;;;;9.13;5.85;;;;;;;8.53;57.29;98026.28;2493621;29;20051;-77
2024/03/10 04:59:55;;;;;;;6.95;6.10;;;;;;;8.52;57.36;98027.22;2493581;28;20051;-77
2024/03/10 05:01:10;;;;;;;11.57;8.77;;;;;;;8.50;57.66;98023.81;2493536;28;20612;-76
2024/03/10 05:02:24;;;;;;;9.95;7.82;;;;;;;8.50;57.51;98031.63;2493345;28;20055;-77
2024/03/10 05:03:39;;;;;;;6.95;5.50;;;;;;;8.48;57.76;98029.06;2493754;29;20058;-77
2024/03/10 05:04:53;;;;;;;7.88;6.07;;;;;;;8.50;57.59;98039.41;2493578;28;20520;-76
2024/03/10 05:06:09;;;;;;;7.70;6.47;;;;;;;8.50;57.63;98031.63;2493187;28;20053;-77
2024/03/10 05:07:23;;;;;;;7.15;6.00;;;;;;;8.49;57.65;98041.19;2486077;29;20421;-76
2024/03/10 05:08:37;;;;;;;7.38;6.63;;;;;;;8.49;57.68;98035.97;2493807;28;20066;-77
2024/03/10 05:09:51;;;;;;;7.50;6.15;;;;;;;8.49;57.67;98043.78;2493073;28;20051;-77
2024/03/10 05:11:05;;;;;;;6.63;5.88;;;;;;;8.48;57.43;98043.84;2493749;28;20055;-77
2024/03/10 05:12:18;;;;;;;7.72;6.60;;;;;;;8.46;57.61;98041.28;2493720;29;20058;-78
2024/03/10 05:13:34;;;;;;;8.00;6.60;;;;;;;8.46;57.59;98046.47;2495940;28;20130;-77
2024/03/10 05:14:48;;;;;;;9.25;5.85;;;;;;;8.46;57.86;98040.44;2503527;28;20401;-77
2024/03/10 05:16:03;;;;;;;8.35;6.10;;;;;;;8.44;57.74;98043.13;2503131;28;20053;-77
2024/03/10 05:17:17;;;;;;;7.63;5.38;;;;;;;8.43;57.84;98045.78;2502920;28;20043;-78
2024/03/10 05:18:32;;;;;;;6.97;6.28;;;;;;;8.43;57.74;98040.56;2500502;28;20043;-77
2024/03/10 05:19:45;;;;;;;6.50;5.82;;;;;;;8.41;58.14;98045.00;2493557;28;20134;-76
2024/03/10 05:21:00;;;;;;;6.60;5.90;;;;;;;8.40;57.82;98030.31;2493719;29;20058;-77
2024/03/10 05:22:16;;;;;;;7.72;6.63;;;;;;;8.38;58.02;98032.09;2502439;28;20057;-77
2024/03/10 05:23:32;;;;;;;9.20;5.82;;;;;;;8.37;58.03;98033.00;2497772;28;20097;-77
2024/03/10 05:24:45;;;;;;;6.80;6.10;;;;;;;8.34;57.83;98028.78;2498757;28;20055;-77
2024/03/10 05:26:00;;;;;;;8.23;6.65;;;;;;;8.32;58.18;98038.41;2500395;28;20110;-78
2024/03/10 05:27:15;;;;;;;8.23;6.20;;;;;;;8.30;58.23;98033.25;2495452;28;20246;-78
2024/03/10 05:28:31;;;;;;;7.50;6.80;;;;;;;8.28;58.45;98037.66;2500830;28;20047;-78
2024/03/10 05:29:45;;;;;;;9.05;6.50;;;;;;;8.26;58.14;98042.09;2498088;28;20465;-77
2024/03/10 05:30:59;;;;;;;7.05;6.35;;;;;;;8.25;58.28;98042.16;2497289;28;20051;-78
2024/03/10 05:32:13;;;;;;;7.30;6.05;;;;;;;8.23;58.41;98044.78;2501937;28;20054;-78
2024/03/10 05:33:27;;;;;;;7.30;6.07;;;;;;;8.21;58.79;98057.03;2495773;28;20408;-77
2024/03/10 05:34:40;;;;;;;6.95;6.15;;;;;;;8.20;58.69;98049.28;2499277;28;20054;-78
2024/03/10 05:35:55;;;;;;;8.25;6.28;;;;;;;8.18;58.67;98057.13;2499471;28;20053;-78
2024/03/10 05:37:09;;;;;;;6.90;6.20;;;;;;;8.16;58.80;98058.09;2503101;28;20054;-74
2024/03/10 05:38:25;;;;;;;7.25;6.55;;;;;;;8.14;58.81;98059.94;2509948;28;20526;-77
2024/03/10 05:39:38;;;;;;;8.40;5.93;;;;;;;8.11;58.87;98063.50;2504522;28;20057;-77
2024/03/10 05:40:53;;;;;;;8.57;7.05;;;;;;;8.09;59.07;98066.16;2505385;28;20137;-76
2024/03/10 05:42:06;;;;;;;6.75;5.70;;;;;;;8.08;59.06;98058.44;2503390;28;20050;-77
2024/03/10 05:43:21;;;;;;;7.20;5.38;;;;;;;8.06;59.09;98063.69;2501630;28;20098;-77
2024/03/10 05:44:34;;;;;;;7.00;6.30;;;;;;;8.04;59.41;98069.84;2497286;28;20050;-78
2024/03/10 05:45:49;;;;;;;6.00;5.32;;;;;;;8.02;59.18;98063.84;2502461;28;20047;-77
2024/03/10 05:47:04;;;;;;;6.13;5.20;;;;;;;8.01;59.38;98054.38;2503379;28;20508;-77
2024/03/10 05:48:18;;;;;;;6.70;6.00;;;;;;;7.99;59.50;98058.78;2504317;28;20077;-77
2024/03/10 05:49:32;;;;;;;6.75;6.05;;;;;;;7.98;59.38;98050.16;2507036;28;20050;-77
2024/03/10 05:50:46;;;;;;;6.85;6.00;;;;;;;7.96;59.31;98040.72;2493504;29;20051;-77
2024/03/10 05:51:59;;;;;;;8.43;7.35;;;;;;;7.96;59.55;98046.78;2493803;29;20063;-77
2024/03/10 05:53:14;;;;;;;6.20;5.57;;;;;;;7.94;59.31;98043.38;2493162;28;20051;-77
2024/03/10 05:54:29;;;;;;;8.60;6.85;;;;;;;7.94;59.44;98042.53;2493010;29;20489;-79
2024/03/10 05:55:44;;;;;;;6.30;5.70;;;;;;;7.93;59.46;98051.25;2493564;28;20521;-77
2024/03/10 05:56:59;;;;;;;8.23;6.15;;;;;;;7.93;59.51;98035.66;2495436;28;20090;-76
2024/03/10 05:58:14;;;;;;;8.02;7.10;;;;;;;7.91;59.49;98033.13;2494190;28;20059;-77
2024/03/10 05:59:28;;;;;;;7.60;6.82;;;;;;;7.92;59.44;98033.97;2493513;28;20142;-77
2024/03/10 06:00:42;;;;;;;8.23;6.22;;;;;;;7.91;59.50;98048.69;2493731;28;20050;-77
2024/03/10 06:01:56;;;;;;;6.13;5.53;;;;;;;7.90;59.36;98044.44;2493181;28;20428;-77
2024/03/10 06:03:10;;;;;;;7.10;5.78;;;;;;;7.91;59.50;98058.25;2493857;28;20051;-78
2024/03/10 06:04:23;;;;;;;10.93;6.28;;;;;;;7.91;59.50;98063.44;2486353;28;20054;-77
2024/03/10 06:05:38;;;;;;;7.25;6.22;;;;;;;7.90;59.63;98065.19;2493800;28;20043;-78
2024/03/10 06:06:51;;;;;;;9.50;6.88;;;;;;;7.89;59.64;98071.28;2493497;28;20417;-78
2024/03/10 06:08:08;;;;;;;11.40;7.13;;;;;;;7.89;59.81;98067.84;2493253;28;20061;-77
2024/03/10 06:09:21;;;;;;;9.30;6.85;;;;;;;7.86;59.50;98051.47;2492694;28;20055;-77